Townsend, TN (37882)

10:45 PM EDT on July 29, 2016 (GMT -0400)
Ober Gatlinburg Scenic Lift | | Change Station

Elev 3448 ft 35.70 °N, 83.57 °W | Updated 1 second ago

Scattered Clouds
Scattered Clouds
68.7 °F
Feels Like 68.7 °F
N
0.9
Wind Variable Wind from SSE
Gusts 1.0 mph

Today
High -- | Low -- °F
--% Chance of Precip.
Yesterday
High -- | Low -- °F
Precip. -- in
Pressure 30.07 in
Visibility 10.0 miles
Clouds Scattered Clouds 2400 ft
Dew Point 66 °F
Humidity 91%
Rainfall 0.12 in
Snow Depth Not available.
6:41 AM 8:41 PM
Waning Crescent, 17% visible
METAR KRHP 300220Z AUTO 00000KT 10SM SCT024 22/22 A3007 RMK AO2 T02150215
Pressure 30.07 in
Visibility 10.0 miles
Clouds Scattered Clouds 2400 ft
Dew Point 66 °F
Humidity 91%
Rainfall 0.12 in
Snow Depth Not available.
6:41 AM 8:41 PM
Waning Crescent, 17% visible
METAR KRHP 300220Z AUTO 00000KT 10SM SCT024 22/22 A3007 RMK AO2 T02150215

10-Day Weather Forecast

Almanac

Astronomy

Jul. 29, 2016 Rise Set
Actual Time
Civil Twilight
Nautical Twilight
Astronomical Twilight
Moon
Length of Visible Light
Length of Day
Tomorrow will be .
, % of the Moon is Illuminated

Today's Extremes

State Highs State Lows

Community

WunderPhotos

Upload Photos

1,928,491 photos uploaded!

WunderBlog® & News

Nearby

Air Quality

  Air Quality AQ Index Pollutant
Not available.

Snow Depth

Station Depth Elevation

Earthquake Activity

City Distance Mag. Time & Date
Minimum magnitude displayed is 2.5.

Coastal Water Temperatures

Place Temperature

Stations

Nearby Weather Stations

Station Location Temp. Windchill Dew Point Humidity Wind Precip. Elev Updated Type
                   

Watches & Warnings

There are currently no watches in effect.